createdAt,value
2022-10-28T00:00:39.146Z,17.71
2022-10-28T00:01:38.966Z,17.70
2022-10-28T00:02:39.168Z,17.70
2022-10-28T00:03:58.904Z,17.63
2022-10-28T00:04:39.147Z,17.62
2022-10-28T00:05:38.874Z,17.56
2022-10-28T00:06:39.139Z,17.55
2022-10-28T00:07:38.843Z,17.52
2022-10-28T00:08:39.091Z,17.48
2022-10-28T00:09:38.834Z,17.44
2022-10-28T00:10:39.091Z,17.41
2022-10-28T00:11:38.826Z,17.38
2022-10-28T00:12:39.149Z,17.38
2022-10-28T00:13:58.894Z,17.33
2022-10-28T00:14:39.129Z,17.33
2022-10-28T00:15:38.864Z,17.31
2022-10-28T00:16:39.099Z,17.31
2022-10-28T00:17:38.854Z,17.25
2022-10-28T00:18:39.127Z,17.23
2022-10-28T00:19:38.859Z,17.21
2022-10-28T00:20:39.109Z,17.21
2022-10-28T00:21:38.873Z,17.18
2022-10-28T00:22:38.632Z,17.16
2022-10-28T00:23:58.871Z,17.12
2022-10-28T00:24:39.179Z,17.12
2022-10-28T00:25:38.860Z,17.08
2022-10-28T00:26:38.621Z,17.06
2022-10-28T00:27:38.894Z,17.03
2022-10-28T00:28:38.646Z,17.00
2022-10-28T00:29:38.911Z,16.98
2022-10-28T00:30:38.628Z,16.96
2022-10-28T00:31:38.908Z,16.94
2022-10-28T00:32:38.649Z,16.91
2022-10-28T00:33:58.920Z,16.86
2022-10-28T00:34:38.974Z,16.85
2022-10-28T00:35:38.885Z,16.82
2022-10-28T00:36:38.625Z,16.79
2022-10-28T00:37:38.874Z,16.79
2022-10-28T00:38:38.615Z,16.76
2022-10-28T00:39:38.854Z,16.70
2022-10-28T00:40:38.595Z,16.68
2022-10-28T00:41:38.853Z,16.68
2022-10-28T00:42:38.593Z,16.64
2022-10-28T00:43:58.851Z,16.63
2022-10-28T00:44:38.576Z,16.61
2022-10-28T00:45:38.831Z,16.60
2022-10-28T00:46:38.576Z,16.57
2022-10-28T00:47:38.825Z,16.53
2022-10-28T00:48:38.545Z,16.52
2022-10-28T00:49:38.806Z,16.49
2022-10-28T00:50:38.528Z,16.49
2022-10-28T00:51:38.777Z,16.48
2022-10-28T00:52:38.516Z,16.45
2022-10-28T00:53:58.778Z,16.42
2022-10-28T00:54:38.521Z,16.39
2022-10-28T00:55:38.801Z,16.38
2022-10-28T00:56:38.549Z,16.34
2022-10-28T00:57:38.303Z,16.33
2022-10-28T00:58:38.548Z,16.30
2022-10-28T00:59:38.284Z,16.25
2022-10-28T01:00:38.872Z,16.25
2022-10-28T01:01:38.364Z,16.23
2022-10-28T01:02:38.553Z,16.21
2022-10-28T01:03:58.308Z,16.17
2022-10-28T01:04:38.544Z,16.15
2022-10-28T01:05:38.272Z,16.14
2022-10-28T01:06:38.524Z,16.12
2022-10-28T01:07:38.268Z,16.09
2022-10-28T01:08:38.526Z,16.08
2022-10-28T01:09:38.295Z,16.05
2022-10-28T01:10:38.528Z,16.02
2022-10-28T01:11:38.275Z,16.02
2022-10-28T01:12:38.524Z,16.02
2022-10-28T01:13:58.294Z,16.01
2022-10-28T01:14:38.523Z,16.00
2022-10-28T01:15:38.262Z,15.97
2022-10-28T01:16:38.521Z,15.96
2022-10-28T01:17:38.245Z,15.94
2022-10-28T01:18:38.505Z,15.94
2022-10-28T01:19:38.247Z,15.93
2022-10-28T01:20:41.535Z,15.90
2022-10-28T01:21:38.235Z,15.89
2022-10-28T01:22:38.478Z,15.87
2022-10-28T01:24:00.247Z,15.89
2022-10-28T01:24:37.989Z,15.87
2022-10-28T01:25:38.228Z,15.86
2022-10-28T01:26:37.997Z,15.87
2022-10-28T01:27:38.240Z,15.89
2022-10-28T01:28:37.971Z,15.87
2022-10-28T01:29:38.196Z,15.87
2022-10-28T01:30:37.947Z,15.86
2022-10-28T01:31:38.199Z,15.84
2022-10-28T01:32:37.949Z,15.83
2022-10-28T01:33:58.211Z,15.83
2022-10-28T01:34:37.939Z,15.83
2022-10-28T01:35:38.194Z,15.80
2022-10-28T01:36:37.934Z,15.80
2022-10-28T01:37:38.161Z,15.80
2022-10-28T01:38:37.911Z,15.78
2022-10-28T01:39:38.143Z,15.80
2022-10-28T01:40:37.902Z,15.80
2022-10-28T01:41:38.130Z,15.82
2022-10-28T01:42:37.881Z,15.82
2022-10-28T01:43:58.164Z,15.84
2022-10-28T01:44:37.896Z,15.87
2022-10-28T01:45:38.155Z,15.92
2022-10-28T01:46:37.905Z,15.96
2022-10-28T01:47:38.156Z,16.05
2022-10-28T01:49:38.151Z,16.17
2022-10-28T01:50:37.885Z,16.23
2022-10-28T01:51:38.132Z,16.28
2022-10-28T01:52:37.872Z,16.34
2022-10-28T01:53:58.134Z,16.43
2022-10-28T01:54:37.867Z,16.46
2022-10-28T01:55:38.112Z,16.48
2022-10-28T01:56:37.866Z,16.52
2022-10-28T01:57:38.108Z,16.52
2022-10-28T01:58:37.856Z,16.56
2022-10-28T01:59:38.107Z,16.57
2022-10-28T02:00:37.919Z,16.58
2022-10-28T02:01:37.820Z,16.60
2022-10-28T02:02:37.860Z,16.63
2022-10-28T02:03:58.123Z,16.63
2022-10-28T02:04:38.030Z,16.63
2022-10-28T02:05:37.588Z,16.61
2022-10-28T02:06:37.843Z,16.64
2022-10-28T02:07:37.634Z,16.68
2022-10-28T02:08:37.863Z,16.75
2022-10-28T02:09:37.657Z,16.78
2022-10-28T02:10:37.906Z,16.83
2022-10-28T02:11:37.677Z,16.91
2022-10-28T02:12:37.955Z,16.98
2022-10-28T02:13:57.786Z,17.03
2022-10-28T02:14:37.528Z,17.04
2022-10-28T02:15:37.807Z,17.03
2022-10-28T02:16:37.568Z,17.00
2022-10-28T02:17:37.829Z,17.04
2022-10-28T02:18:37.595Z,17.04
2022-10-28T02:19:37.868Z,17.04
2022-10-28T02:20:39.690Z,17.04
2022-10-28T02:21:37.470Z,17.08
2022-10-28T02:22:37.741Z,17.12
2022-10-28T02:23:57.514Z,17.16
2022-10-28T02:24:37.797Z,17.21
2022-10-28T02:25:37.611Z,17.21
2022-10-28T02:26:37.909Z,17.22
2022-10-28T02:27:37.702Z,17.22
2022-10-28T02:28:37.485Z,17.23
2022-10-28T02:29:37.768Z,17.23
2022-10-28T02:30:37.554Z,17.23
2022-10-28T02:31:37.322Z,17.21
2022-10-28T02:32:39.124Z,17.22
2022-10-28T02:33:57.484Z,17.22
2022-10-28T02:34:37.913Z,17.23
2022-10-28T02:35:38.034Z,17.22
2022-10-28T02:36:38.922Z,17.21
2022-10-28T02:37:38.233Z,17.23
2022-10-28T02:38:39.057Z,17.21
2022-10-28T02:39:37.519Z,17.18
2022-10-28T02:40:37.927Z,17.18
2022-10-28T02:41:38.037Z,17.15
2022-10-28T02:42:38.854Z,17.15
2022-10-28T02:43:57.671Z,17.14
2022-10-28T02:44:37.985Z,17.11
2022-10-28T02:45:38.651Z,17.08
2022-10-28T02:46:38.940Z,17.07
2022-10-28T02:47:37.537Z,17.06
2022-10-28T02:48:38.600Z,17.03
2022-10-28T02:49:38.028Z,17.01
2022-10-28T02:50:37.262Z,17.00
2022-10-28T02:51:38.964Z,16.97
2022-10-28T02:52:38.808Z,16.94
2022-10-28T02:53:57.623Z,16.93
2022-10-28T02:54:38.043Z,16.93
2022-10-28T02:55:38.622Z,16.86
2022-10-28T02:56:38.917Z,16.83
2022-10-28T02:57:38.217Z,16.81
2022-10-28T02:58:38.494Z,16.78
2022-10-28T02:59:38.054Z,16.73
2022-10-28T03:00:38.585Z,16.71
2022-10-28T03:01:38.537Z,16.67
2022-10-28T03:02:38.283Z,16.63
2022-10-28T03:03:57.064Z,16.58
2022-10-28T03:04:38.122Z,16.57
2022-10-28T03:05:38.096Z,16.56
2022-10-28T03:06:38.866Z,16.52
2022-10-28T03:07:38.657Z,16.49
2022-10-28T03:08:37.099Z,16.46
2022-10-28T03:09:38.139Z,16.45
2022-10-28T03:10:38.055Z,16.41
2022-10-28T03:11:38.835Z,16.38
2022-10-28T03:12:38.600Z,16.33
2022-10-28T03:13:56.920Z,16.30
2022-10-28T03:14:37.923Z,16.27
2022-10-28T03:15:38.436Z,16.25
2022-10-28T03:16:37.572Z,16.23
2022-10-28T03:17:38.509Z,16.21
2022-10-28T03:18:37.350Z,16.17
2022-10-28T03:19:37.952Z,16.17
2022-10-28T03:20:38.447Z,16.15
2022-10-28T03:21:37.959Z,16.15
2022-10-28T03:22:37.592Z,16.12
2022-10-28T03:23:56.862Z,16.11
2022-10-28T03:24:37.984Z,16.09
2022-10-28T03:25:37.911Z,16.07
2022-10-28T03:26:38.190Z,16.04
2022-10-28T03:27:37.582Z,16.02
2022-10-28T03:28:37.575Z,16.02
2022-10-28T03:29:40.874Z,16.00
2022-10-28T03:30:39.353Z,15.97
2022-10-28T03:31:38.160Z,15.96
2022-10-28T03:32:38.427Z,15.93
2022-10-28T03:33:57.249Z,15.92
2022-10-28T03:34:37.102Z,15.92
2022-10-28T03:35:38.294Z,15.89
2022-10-28T03:36:38.115Z,15.86
2022-10-28T03:37:38.388Z,15.84
2022-10-28T03:38:38.165Z,15.83
2022-10-28T03:39:37.591Z,15.80
2022-10-28T03:40:38.296Z,15.80
2022-10-28T03:41:38.076Z,15.76
2022-10-28T03:42:40.435Z,15.75
2022-10-28T03:43:56.702Z,15.72
2022-10-28T03:44:37.596Z,15.74
2022-10-28T03:45:37.589Z,15.71
2022-10-28T03:46:38.490Z,15.74
2022-10-28T03:47:37.518Z,15.72
2022-10-28T03:48:38.068Z,15.72
2022-10-28T03:49:36.960Z,15.71
2022-10-28T03:50:38.239Z,15.69
2022-10-28T03:51:36.597Z,15.69
2022-10-28T03:52:37.789Z,15.67
2022-10-28T03:53:56.664Z,15.64
2022-10-28T03:54:37.916Z,15.65
2022-10-28T03:55:36.771Z,15.62
2022-10-28T03:56:37.093Z,15.64
2022-10-28T03:57:37.605Z,15.62
2022-10-28T03:58:41.018Z,15.64
2022-10-28T03:59:37.570Z,15.64
2022-10-28T04:00:37.639Z,15.67
2022-10-28T04:01:38.009Z,15.67
2022-10-28T04:02:37.098Z,15.67
2022-10-28T04:03:56.527Z,15.67
2022-10-28T04:04:37.983Z,15.68
2022-10-28T04:05:37.694Z,15.68
2022-10-28T04:06:37.823Z,15.68
2022-10-28T04:07:38.116Z,15.68
2022-10-28T04:08:37.904Z,15.74
2022-10-28T04:09:39.032Z,15.76
2022-10-28T04:10:37.483Z,15.78
2022-10-28T04:11:36.984Z,15.80
2022-10-28T04:12:38.084Z,15.82
2022-10-28T04:13:56.395Z,15.86
2022-10-28T04:14:38.046Z,15.86
2022-10-28T04:15:37.939Z,15.92
2022-10-28T04:16:37.245Z,15.92
2022-10-28T04:17:38.034Z,15.93
2022-10-28T04:18:37.801Z,15.93
2022-10-28T04:19:38.086Z,15.97
2022-10-28T04:20:37.857Z,16.02
2022-10-28T04:21:37.109Z,16.04
2022-10-28T04:22:38.020Z,16.02
2022-10-28T04:23:56.357Z,16.02
2022-10-28T04:24:37.277Z,16.01
2022-10-28T04:25:36.419Z,15.97
2022-10-28T04:26:37.132Z,15.97
2022-10-28T04:27:37.109Z,15.93
2022-10-28T04:28:37.232Z,15.92
2022-10-28T04:29:37.512Z,15.92
2022-10-28T04:30:37.801Z,15.87
2022-10-28T04:31:37.587Z,15.86
2022-10-28T04:32:37.921Z,15.87
2022-10-28T04:33:56.230Z,15.89
2022-10-28T04:34:37.433Z,15.90
2022-10-28T04:35:37.213Z,15.89
2022-10-28T04:36:37.509Z,15.90
2022-10-28T04:37:36.438Z,15.90
2022-10-28T04:38:37.689Z,15.92
2022-10-28T04:39:37.131Z,15.90
2022-10-28T04:40:37.284Z,15.90
2022-10-28T04:41:37.558Z,15.87
2022-10-28T04:42:37.861Z,15.90
2022-10-28T04:43:56.173Z,15.90
2022-10-28T04:44:36.818Z,15.87
2022-10-28T04:45:36.665Z,15.86
2022-10-28T04:46:36.956Z,15.84
2022-10-28T04:47:36.316Z,15.83
2022-10-28T04:48:37.534Z,15.82
2022-10-28T04:49:38.935Z,15.78
2022-10-28T04:50:36.839Z,15.75
2022-10-28T04:51:36.662Z,15.72
2022-10-28T04:52:37.706Z,15.71
2022-10-28T04:53:56.072Z,15.68
2022-10-28T04:54:37.754Z,15.67
2022-10-28T04:55:37.534Z,15.64
2022-10-28T04:56:36.667Z,15.60
2022-10-28T04:57:37.107Z,15.57
2022-10-28T04:58:37.475Z,15.56
2022-10-28T04:59:37.250Z,15.53
2022-10-28T05:00:36.108Z,15.51
2022-10-28T05:01:37.447Z,15.47
2022-10-28T05:02:36.639Z,15.47
2022-10-28T05:03:55.951Z,15.44
2022-10-28T05:04:37.190Z,15.44
2022-10-28T05:05:37.494Z,15.41
2022-10-28T05:06:37.294Z,15.41
2022-10-28T05:07:37.581Z,15.38
2022-10-28T05:08:36.651Z,15.35
2022-10-28T05:09:36.741Z,15.34
2022-10-28T05:10:36.074Z,15.32
2022-10-28T05:11:37.303Z,15.31
2022-10-28T05:12:37.592Z,15.29
2022-10-28T05:13:55.908Z,15.28
2022-10-28T05:14:36.705Z,15.28
2022-10-28T05:15:36.031Z,15.23
2022-10-28T05:16:37.264Z,15.23
2022-10-28T05:17:37.063Z,15.21
2022-10-28T05:18:37.366Z,15.20
2022-10-28T05:19:35.692Z,15.19
2022-10-28T05:20:37.416Z,15.16
2022-10-28T05:21:37.206Z,15.13
2022-10-28T05:22:36.991Z,15.11
2022-10-28T05:23:55.803Z,15.09
2022-10-28T05:24:35.652Z,15.09
2022-10-28T05:25:36.669Z,15.07
2022-10-28T05:26:37.110Z,15.02
2022-10-28T05:27:37.394Z,15.02
2022-10-28T05:28:36.417Z,15.01
2022-10-28T05:29:36.535Z,14.98
2022-10-28T05:30:35.169Z,14.99
2022-10-28T05:31:35.170Z,14.96
2022-10-28T05:32:37.278Z,14.96
2022-10-28T05:33:55.607Z,14.96
2022-10-28T05:34:35.926Z,14.95
2022-10-28T05:35:36.447Z,14.94
2022-10-28T05:36:36.376Z,14.91
2022-10-28T05:37:36.164Z,14.91
2022-10-28T05:38:36.950Z,14.89
2022-10-28T05:39:35.859Z,14.88
2022-10-28T05:40:36.331Z,14.84
2022-10-28T05:41:38.781Z,14.83
2022-10-28T05:42:36.352Z,14.81
2022-10-28T05:43:55.460Z,14.83
2022-10-28T05:44:36.664Z,14.80
2022-10-28T05:45:36.482Z,14.80
2022-10-28T05:46:37.263Z,14.78
2022-10-28T05:47:39.282Z,14.78
2022-10-28T05:48:36.857Z,14.77
2022-10-28T05:49:36.181Z,14.78
2022-10-28T05:50:36.928Z,14.77
2022-10-28T05:51:37.238Z,14.78
2022-10-28T05:52:37.041Z,14.78
2022-10-28T05:53:55.355Z,14.78
2022-10-28T05:54:36.642Z,14.78
2022-10-28T05:55:36.202Z,14.80
2022-10-28T05:56:36.204Z,14.80
2022-10-28T05:57:36.514Z,14.78
2022-10-28T05:58:36.828Z,14.77
2022-10-28T05:59:36.586Z,14.75
2022-10-28T06:00:36.852Z,14.75
2022-10-28T06:01:36.220Z,14.78
2022-10-28T06:02:36.453Z,14.75
2022-10-28T06:03:54.753Z,14.73
2022-10-28T06:04:35.934Z,14.73
2022-10-28T06:05:36.874Z,14.77
2022-10-28T06:06:36.144Z,14.77
2022-10-28T06:07:34.634Z,14.75
2022-10-28T06:08:36.045Z,14.73
2022-10-28T06:09:36.348Z,14.73
2022-10-28T06:10:36.667Z,14.70
2022-10-28T06:11:35.426Z,14.69
2022-10-28T06:13:55.533Z,14.65
2022-10-28T06:14:34.409Z,14.68
2022-10-28T06:15:35.062Z,14.64
2022-10-28T06:16:35.358Z,14.64
2022-10-28T06:17:34.162Z,14.61
2022-10-28T06:18:34.955Z,14.61
2022-10-28T06:19:34.755Z,14.58
2022-10-28T06:20:34.226Z,14.57
2022-10-28T06:21:34.196Z,14.55
2022-10-28T06:22:34.574Z,14.54
2022-10-28T06:23:53.911Z,14.51
2022-10-28T06:24:34.605Z,14.50
2022-10-28T06:25:34.118Z,14.50
2022-10-28T06:26:34.698Z,14.47
2022-10-28T06:27:33.612Z,14.46
2022-10-28T06:28:34.761Z,14.45
2022-10-28T06:29:34.189Z,14.45
2022-10-28T06:30:33.604Z,14.43
2022-10-28T06:31:34.634Z,14.40
2022-10-28T06:32:34.947Z,14.40
2022-10-28T06:33:53.772Z,14.40
2022-10-28T06:34:34.194Z,14.40
2022-10-28T06:35:34.218Z,14.42
2022-10-28T06:36:33.628Z,14.40
2022-10-28T06:37:34.341Z,14.40
2022-10-28T06:38:35.136Z,14.39
2022-10-28T06:39:34.433Z,14.39
2022-10-28T06:40:34.186Z,14.40
2022-10-28T06:41:33.606Z,14.39
2022-10-28T06:42:34.758Z,14.40
2022-10-28T06:43:53.630Z,14.39
2022-10-28T06:44:34.431Z,14.42
2022-10-28T06:45:35.121Z,14.43
2022-10-28T06:46:36.052Z,14.42
2022-10-28T06:47:40.540Z,14.45
2022-10-28T06:48:36.014Z,14.45
2022-10-28T06:49:35.749Z,14.47
2022-10-28T06:50:36.024Z,14.47
2022-10-28T06:51:36.321Z,14.50
2022-10-28T06:52:35.823Z,14.52
2022-10-28T06:53:54.939Z,14.54
2022-10-28T06:54:35.390Z,14.54
2022-10-28T06:55:35.935Z,14.57
2022-10-28T06:56:34.913Z,14.58
2022-10-28T06:57:35.041Z,14.60
2022-10-28T06:58:34.767Z,14.61
2022-10-28T06:59:35.036Z,14.64
2022-10-28T07:00:34.798Z,14.68
2022-10-28T07:01:35.086Z,14.69
2022-10-28T07:02:34.834Z,14.75
2022-10-28T07:03:55.001Z,14.83
2022-10-28T07:04:34.740Z,14.86
2022-10-28T07:05:34.973Z,14.92
2022-10-28T07:06:34.729Z,14.99
2022-10-28T07:07:34.968Z,15.07
2022-10-28T07:08:34.699Z,15.17
2022-10-28T07:09:34.950Z,15.21
2022-10-28T07:10:34.690Z,15.32
2022-10-28T07:11:34.921Z,15.44
2022-10-28T07:12:34.822Z,15.53
2022-10-28T07:13:53.985Z,15.67
2022-10-28T07:14:34.722Z,15.71
2022-10-28T07:15:34.470Z,15.75
2022-10-28T07:16:34.721Z,15.82
2022-10-28T07:17:34.469Z,15.89
2022-10-28T07:18:34.709Z,15.94
2022-10-28T07:19:34.461Z,16.01
2022-10-28T07:20:34.699Z,16.05
2022-10-28T07:21:34.451Z,16.11
2022-10-28T07:22:34.705Z,16.15
2022-10-28T07:23:54.461Z,16.25
2022-10-28T07:24:34.704Z,16.30
2022-10-28T07:25:34.452Z,16.33
2022-10-28T07:26:34.716Z,16.39
2022-10-28T07:27:34.443Z,16.45
2022-10-28T07:28:34.678Z,16.53
2022-10-28T07:29:34.439Z,16.63
2022-10-28T07:30:34.680Z,16.73
2022-10-28T07:31:34.419Z,16.85
2022-10-28T07:32:34.675Z,16.98
2022-10-28T07:33:54.435Z,17.06
2022-10-28T07:34:34.684Z,17.07
2022-10-28T07:35:34.411Z,17.12
2022-10-28T07:36:34.690Z,17.16
2022-10-28T07:37:34.435Z,17.22
2022-10-28T07:38:34.196Z,17.28
2022-10-28T07:39:34.878Z,17.36
2022-10-28T07:40:34.707Z,17.43
2022-10-28T07:41:34.447Z,17.51
2022-10-28T07:42:34.217Z,17.56
2022-10-28T07:43:54.477Z,17.66
2022-10-28T07:44:34.213Z,17.70
2022-10-28T07:45:34.442Z,17.78
2022-10-28T07:46:34.178Z,17.87
2022-10-28T07:47:34.454Z,17.95
2022-10-28T07:48:34.187Z,18.00
2022-10-28T07:49:34.417Z,18.10
2022-10-28T07:50:34.188Z,18.17
2022-10-28T07:51:35.919Z,18.29
2022-10-28T07:52:34.262Z,18.37
2022-10-28T07:53:54.501Z,18.55
2022-10-28T07:54:34.293Z,18.63
2022-10-28T07:55:35.928Z,18.67
2022-10-28T07:56:34.261Z,18.70
2022-10-28T07:57:34.712Z,18.78
2022-10-28T07:58:35.755Z,18.84
2022-10-28T07:59:34.052Z,18.88
2022-10-28T08:00:35.910Z,18.98
2022-10-28T08:01:34.223Z,19.04
2022-10-28T08:02:35.859Z,19.11
2022-10-28T08:03:54.175Z,19.16
2022-10-28T08:04:34.922Z,19.22
2022-10-28T08:05:35.689Z,19.32
2022-10-28T08:06:34.740Z,19.43
2022-10-28T08:07:38.435Z,19.50
2022-10-28T08:08:34.243Z,19.59
2022-10-28T08:09:34.780Z,19.73
2022-10-28T08:10:35.726Z,19.83
2022-10-28T08:11:34.127Z,19.92
2022-10-28T08:12:34.853Z,19.98
2022-10-28T08:13:54.166Z,20.11
2022-10-28T08:14:33.974Z,20.20
2022-10-28T08:15:34.206Z,20.33
2022-10-28T08:16:33.968Z,20.42
2022-10-28T08:17:34.221Z,20.58
2022-10-28T08:18:33.970Z,20.73
2022-10-28T08:19:34.208Z,20.98
2022-10-28T08:20:33.995Z,21.19
2022-10-28T08:21:33.758Z,21.40
2022-10-28T08:22:34.016Z,21.61
2022-10-28T08:23:55.255Z,21.80
2022-10-28T08:24:34.105Z,21.67
2022-10-28T08:25:33.821Z,21.52
2022-10-28T08:26:34.138Z,21.34
2022-10-28T08:27:33.896Z,21.27
2022-10-28T08:28:34.092Z,21.29
2022-10-28T08:29:33.845Z,21.32
2022-10-28T08:30:50.270Z,21.38
2022-10-28T08:31:34.888Z,21.38
2022-10-28T08:32:33.612Z,21.59
2022-10-28T08:33:54.859Z,21.94
2022-10-28T08:34:34.068Z,22.09
2022-10-28T08:35:33.901Z,22.35
2022-10-28T08:36:33.649Z,22.83
2022-10-28T08:37:34.932Z,23.32
2022-10-28T08:38:33.639Z,23.94
2022-10-28T08:39:33.892Z,24.28
2022-10-28T08:40:33.642Z,24.69
2022-10-28T08:41:33.892Z,25.33
2022-10-28T08:42:33.652Z,25.88
2022-10-28T08:43:57.767Z,26.28
2022-10-28T08:44:33.721Z,26.10
2022-10-28T08:45:33.480Z,25.95
2022-10-28T08:46:33.710Z,25.77
2022-10-28T08:47:33.477Z,25.75
2022-10-28T08:48:33.731Z,25.69
2022-10-28T08:49:33.466Z,25.40
2022-10-28T08:50:33.743Z,25.02
2022-10-28T08:51:33.484Z,24.71
2022-10-28T08:52:33.715Z,24.35
2022-10-28T08:53:54.471Z,24.16
2022-10-28T08:54:33.736Z,24.09
2022-10-28T08:55:33.499Z,24.34
2022-10-28T08:56:33.730Z,24.60
2022-10-28T08:57:33.512Z,24.76
2022-10-28T08:58:33.765Z,24.85
2022-10-28T08:59:33.518Z,24.93
2022-10-28T09:00:33.781Z,24.76
2022-10-28T09:01:33.738Z,24.57
2022-10-28T09:02:33.753Z,24.40
2022-10-28T09:03:54.981Z,24.42
2022-10-28T09:04:33.295Z,24.40
2022-10-28T09:05:33.545Z,24.32
2022-10-28T09:06:33.314Z,24.15
2022-10-28T09:07:33.519Z,24.20
2022-10-28T09:08:33.262Z,24.27
2022-10-28T09:09:33.537Z,24.28
2022-10-28T09:10:33.297Z,24.40
2022-10-28T09:11:33.519Z,24.42
2022-10-28T09:12:33.285Z,24.27
2022-10-28T09:13:55.014Z,24.10
2022-10-28T09:14:33.296Z,24.00
2022-10-28T09:15:33.585Z,23.93
2022-10-28T09:16:33.327Z,23.84
2022-10-28T09:17:33.591Z,23.79
2022-10-28T09:18:33.357Z,23.70
2022-10-28T09:19:33.608Z,23.73
2022-10-28T09:20:33.370Z,23.68
2022-10-28T09:21:33.115Z,23.63
2022-10-28T09:22:33.380Z,23.58
2022-10-28T09:23:54.740Z,23.53
2022-10-28T09:24:33.598Z,23.58
2022-10-28T09:25:33.319Z,23.66
2022-10-28T09:26:34.567Z,23.93
2022-10-28T09:27:34.821Z,24.43
2022-10-28T09:28:34.649Z,25.02
2022-10-28T09:29:33.563Z,25.55
2022-10-28T09:30:33.935Z,25.80
2022-10-28T09:31:33.872Z,26.12
2022-10-28T09:32:33.401Z,26.37
2022-10-28T09:33:53.178Z,26.32
2022-10-28T09:34:33.403Z,26.05
2022-10-28T09:35:33.152Z,25.69
2022-10-28T09:36:33.403Z,25.35
2022-10-28T09:37:33.146Z,25.23
2022-10-28T09:38:33.414Z,25.33
2022-10-28T09:39:33.139Z,25.32
2022-10-28T09:40:32.880Z,25.15
2022-10-28T09:41:33.158Z,24.98
2022-10-28T09:42:33.443Z,24.87
2022-10-28T09:43:53.155Z,24.84
2022-10-28T09:44:32.908Z,24.83
2022-10-28T09:45:33.280Z,25.21
2022-10-28T09:46:36.223Z,25.82
2022-10-28T09:47:33.153Z,26.40
2022-10-28T09:48:32.905Z,26.65
2022-10-28T09:49:33.174Z,26.48
2022-10-28T09:50:32.918Z,26.37
2022-10-28T09:51:33.187Z,26.55
2022-10-28T09:52:32.956Z,26.81
2022-10-28T09:53:53.221Z,27.36
2022-10-28T09:54:32.935Z,27.62
2022-10-28T09:55:33.197Z,28.04
2022-10-28T09:56:32.948Z,28.39
2022-10-28T09:57:33.189Z,28.78
2022-10-28T09:58:32.935Z,29.02
2022-10-28T09:59:33.181Z,29.30
2022-10-28T10:00:32.934Z,29.61
2022-10-28T10:01:33.257Z,30.05
2022-10-28T10:02:32.980Z,30.13
2022-10-28T10:03:53.187Z,30.23
2022-10-28T10:04:32.920Z,29.94
2022-10-28T10:05:33.175Z,30.02
2022-10-28T10:06:32.928Z,30.04
2022-10-28T10:07:32.661Z,30.04
2022-10-28T10:08:32.891Z,29.98
2022-10-28T10:09:32.675Z,29.53
2022-10-28T10:10:32.912Z,29.42
2022-10-28T10:11:32.677Z,29.43
2022-10-28T10:12:32.930Z,29.74
2022-10-28T10:13:52.697Z,29.63
2022-10-28T10:14:32.926Z,29.55
2022-10-28T10:15:32.674Z,29.57
2022-10-28T10:16:32.915Z,29.30
2022-10-28T10:17:32.656Z,28.98
2022-10-28T10:18:32.905Z,28.70
2022-10-28T10:19:32.656Z,28.55
2022-10-28T10:20:32.931Z,28.37
2022-10-28T10:21:32.661Z,28.29
2022-10-28T10:22:32.921Z,28.40
2022-10-28T10:23:52.706Z,28.85
2022-10-28T10:24:32.944Z,28.96
2022-10-28T10:25:32.669Z,29.09
2022-10-28T10:26:32.909Z,29.16
2022-10-28T10:27:32.732Z,29.06
2022-10-28T10:28:32.498Z,29.18
2022-10-28T10:29:32.739Z,29.31
2022-10-28T10:30:32.502Z,29.48
2022-10-28T10:31:32.792Z,29.63
2022-10-28T10:32:32.606Z,29.53
2022-10-28T10:33:52.939Z,29.36
2022-10-28T10:34:32.548Z,29.48
2022-10-28T10:35:32.794Z,29.70
2022-10-28T10:36:32.598Z,29.92
2022-10-28T10:37:32.840Z,30.20
2022-10-28T10:38:32.615Z,30.37
2022-10-28T10:39:32.386Z,30.20
2022-10-28T10:40:32.655Z,30.10
2022-10-28T10:41:32.423Z,30.22
2022-10-28T10:42:32.667Z,30.34
2022-10-28T10:43:52.456Z,30.47
2022-10-28T10:44:32.677Z,30.62
2022-10-28T10:45:32.437Z,30.57
2022-10-28T10:46:32.673Z,30.60
2022-10-28T10:47:32.435Z,30.79
2022-10-28T10:48:32.681Z,30.84
2022-10-28T10:49:32.443Z,30.67
2022-10-28T10:50:32.732Z,30.31
2022-10-28T10:51:33.766Z,30.46
2022-10-28T10:52:32.229Z,30.23
2022-10-28T10:53:52.483Z,30.23
2022-10-28T10:54:32.201Z,29.95
2022-10-28T10:55:32.583Z,29.85
2022-10-28T10:56:32.443Z,29.76
2022-10-28T10:57:32.910Z,29.68
2022-10-28T10:58:33.863Z,29.48
2022-10-28T10:59:32.447Z,29.68
2022-10-28T11:00:33.979Z,29.76
2022-10-28T11:01:32.525Z,29.68
2022-10-28T11:02:33.058Z,29.74
2022-10-28T11:03:52.420Z,29.94
2022-10-28T11:04:33.102Z,30.08
2022-10-28T11:05:38.188Z,30.29
2022-10-28T11:06:33.713Z,30.65
2022-10-28T11:07:33.013Z,30.86
2022-10-28T11:09:30.396Z,30.77
2022-10-28T11:09:36.147Z,30.98
2022-10-28T11:10:35.942Z,30.79
2022-10-28T11:11:35.681Z,30.92
2022-10-28T11:12:35.924Z,31.02
2022-10-28T11:13:55.677Z,30.64
2022-10-28T11:14:35.909Z,30.54
2022-10-28T11:15:35.665Z,30.08
2022-10-28T11:16:35.921Z,29.57
2022-10-28T11:17:35.691Z,29.21
2022-10-28T11:18:35.969Z,28.66
2022-10-28T11:19:35.695Z,28.46
2022-10-28T11:20:35.940Z,28.22
2022-10-28T11:21:35.705Z,28.14
2022-10-28T11:22:35.945Z,28.07
2022-10-28T11:23:55.707Z,27.75
2022-10-28T11:24:35.940Z,27.67
2022-10-28T11:25:35.678Z,27.63
2022-10-28T11:26:35.945Z,27.60
2022-10-28T11:27:35.700Z,27.50
2022-10-28T11:28:35.940Z,27.29
2022-10-28T11:29:35.702Z,27.13
2022-10-28T11:30:35.949Z,27.09
2022-10-28T11:31:35.691Z,27.07
2022-10-28T11:32:41.165Z,27.18
2022-10-28T11:33:56.688Z,27.29
2022-10-28T11:34:35.953Z,27.37
2022-10-28T11:35:35.687Z,27.67
2022-10-28T11:36:35.464Z,28.03
2022-10-28T11:37:36.659Z,28.17
2022-10-28T11:38:35.471Z,28.25
2022-10-28T11:39:35.725Z,28.00
2022-10-28T11:40:35.485Z,27.78
2022-10-28T11:41:35.736Z,27.54
2022-10-28T11:42:35.484Z,27.46
2022-10-28T11:43:57.659Z,27.36
2022-10-28T11:44:35.528Z,27.24
2022-10-28T11:45:35.745Z,27.17
2022-10-28T11:46:35.467Z,27.04
2022-10-28T11:47:35.739Z,26.84
2022-10-28T11:48:35.510Z,26.73
2022-10-28T11:49:37.281Z,26.67
2022-10-28T11:50:35.508Z,26.63
2022-10-28T11:51:35.391Z,26.52
2022-10-28T11:52:35.549Z,26.50
2022-10-28T11:53:55.299Z,26.50
2022-10-28T11:54:35.551Z,26.36
2022-10-28T11:55:35.343Z,26.35
2022-10-28T11:56:35.513Z,26.28
2022-10-28T11:57:35.328Z,26.15
2022-10-28T11:58:35.583Z,26.12
2022-10-28T11:59:35.359Z,26.05
2022-10-28T12:00:35.589Z,26.02
2022-10-28T12:01:36.170Z,26.01
2022-10-28T12:02:35.640Z,25.88
2022-10-28T12:03:55.342Z,25.75
2022-10-28T12:04:35.573Z,25.70
2022-10-28T12:05:35.422Z,25.64
2022-10-28T12:06:35.592Z,25.51
2022-10-28T12:07:35.369Z,25.46
2022-10-28T12:08:35.537Z,25.38
2022-10-28T12:09:35.458Z,25.27
2022-10-28T12:10:36.630Z,25.27
2022-10-28T12:11:36.873Z,25.27
2022-10-28T12:12:38.393Z,25.25
2022-10-28T12:13:56.488Z,25.18
2022-10-28T12:14:36.164Z,25.15
2022-10-28T12:15:35.480Z,25.08
2022-10-28T12:16:35.787Z,25.03
2022-10-28T12:17:36.940Z,24.98
2022-10-28T12:18:35.928Z,24.95
2022-10-28T12:19:36.005Z,24.99
2022-10-28T12:20:35.544Z,25.00
2022-10-28T12:21:36.741Z,25.09
2022-10-28T12:22:35.500Z,25.17
2022-10-28T12:23:55.129Z,25.17
2022-10-28T12:24:35.403Z,25.13
2022-10-28T12:25:36.566Z,25.15
2022-10-28T12:26:36.822Z,25.17
2022-10-28T12:27:36.599Z,25.17
2022-10-28T12:28:36.363Z,25.18
2022-10-28T12:29:36.014Z,25.15
2022-10-28T12:30:36.463Z,25.17
2022-10-28T12:31:35.603Z,25.13
2022-10-28T12:32:36.533Z,25.05
2022-10-28T12:33:55.365Z,24.98
2022-10-28T12:35:34.963Z,24.93
2022-10-28T12:36:35.234Z,24.93
2022-10-28T12:37:35.002Z,24.93
2022-10-28T12:38:36.714Z,24.93
2022-10-28T12:39:36.018Z,24.87
2022-10-28T12:40:35.435Z,24.88
2022-10-28T12:41:35.953Z,24.83
2022-10-28T12:42:36.405Z,24.76
2022-10-28T12:43:55.211Z,24.77
2022-10-28T12:44:36.036Z,24.76
2022-10-28T12:45:34.938Z,24.69
2022-10-28T12:46:35.513Z,24.64
2022-10-28T12:47:37.815Z,24.58
2022-10-28T12:48:36.172Z,24.55
2022-10-28T12:49:35.848Z,24.53
2022-10-28T12:50:35.655Z,24.55
2022-10-28T12:51:36.436Z,24.49
2022-10-28T12:52:35.744Z,24.47
2022-10-28T12:53:55.056Z,24.47
2022-10-28T12:54:35.795Z,24.45
2022-10-28T12:55:35.819Z,24.42